Time;durP1;ratioP1;P1;durP2;ratioP2;P2;SDS_P1;SDS_P2;PMS_P1;PMS_P2;Temp;Humidity;BMP_temperature;BMP_pressure;BME280_temperature;BME280_humidity;BME280_pressure;Samples;Min_cycle;Max_cycle;Signal;HPM_P1;HPM_P2
2022/11/26 00:02:18;;;;;;;34.43;14.50;;;;;;;;;;4983717;28;20210;-43
2022/11/26 00:04:44;;;;;;;28.53;13.17;;;;;;;;;;4984875;28;20422;-46
2022/11/26 00:07:11;;;;;;;29.93;12.87;;;;;;;;;;4984393;28;20441;-45
2022/11/26 00:09:37;;;;;;;25.63;13.23;;;;;;;;;;4988779;28;20442;-44
2022/11/26 00:12:17;;;;;;;41.07;13.87;;;;;;;;;;4983501;28;20417;-44
2022/11/26 00:14:43;;;;;;;30.73;14.00;;;;;;;;;;4981371;28;20410;-44
2022/11/26 00:17:12;;;;;;;32.57;12.67;;;;;;;;;;4981626;28;20866;-46
2022/11/26 00:19:38;;;;;;;35.53;13.43;;;;;;;;;;4979380;28;21084;-45
2022/11/26 00:22:04;;;;;;;31.47;13.80;;;;;;;;;;4986738;28;20452;-43
2022/11/26 00:24:30;;;;;;;32.13;13.33;;;;;;;;;;4984683;28;20908;-45
2022/11/26 00:26:57;;;;;;;31.90;13.10;;;;;;;;;;4983444;28;20975;-43
2022/11/26 00:29:23;;;;;;;27.73;12.87;;;;;;;;;;4978162;28;20426;-44
2022/11/26 00:31:49;;;;;;;27.20;13.07;;;;;;;;;;4987032;28;20524;-45
2022/11/26 00:34:15;;;;;;;30.37;13.57;;;;;;;;;;4980191;28;20410;-44
2022/11/26 00:36:42;;;;;;;30.43;13.47;;;;;;;;;;4990666;28;20872;-45
2022/11/26 00:39:12;;;;;;;32.00;14.60;;;;;;;;;;4981021;28;20413;-44
2022/11/26 00:41:38;;;;;;;27.97;13.50;;;;;;;;;;4985195;28;20520;-44
2022/11/26 00:44:15;;;;;;;31.53;13.47;;;;;;;;;;4983378;28;20468;-45
2022/11/26 00:46:41;;;;;;;38.97;14.07;;;;;;;;;;4983704;28;20822;-44
2022/11/26 00:49:07;;;;;;;41.07;14.80;;;;;;;;;;4983295;28;21027;-44
2022/11/26 00:51:33;;;;;;;29.90;14.30;;;;;;;;;;4988164;28;20870;-44
2022/11/26 00:54:00;;;;;;;30.43;13.80;;;;;;;;;;4979860;28;20405;-45
2022/11/26 00:56:26;;;;;;;33.77;13.33;;;;;;;;;;4983476;28;20527;-44
2022/11/26 00:58:52;;;;;;;38.47;13.20;;;;;;;;;;4983265;28;20416;-44
2022/11/26 01:01:20;;;;;;;34.80;14.00;;;;;;;;;;4982869;28;20409;-45
2022/11/26 01:03:45;;;;;;;35.23;12.50;;;;;;;;;;4984573;28;20405;-45
2022/11/26 01:06:14;;;;;;;25.23;14.10;;;;;;;;;;4982581;28;20451;-44
2022/11/26 01:08:40;;;;;;;30.97;13.80;;;;;;;;;;4986656;28;20431;-45
2022/11/26 01:11:06;;;;;;;30.63;14.40;;;;;;;;;;4982834;28;20415;-44
2022/11/26 01:13:33;;;;;;;41.73;15.23;;;;;;;;;;4978634;28;20472;-44
2022/11/26 01:16:00;;;;;;;32.70;14.30;;;;;;;;;;4987288;28;20802;-44
2022/11/26 01:18:26;;;;;;;35.37;13.57;;;;;;;;;;4983894;28;20973;-44
2022/11/26 01:20:52;;;;;;;33.93;14.10;;;;;;;;;;4984720;28;20412;-44
2022/11/26 01:23:19;;;;;;;33.93;14.37;;;;;;;;;;4982661;28;20528;-44
2022/11/26 01:25:45;;;;;;;30.23;14.67;;;;;;;;;;4984472;28;20869;-44
2022/11/26 01:28:16;;;;;;;30.17;14.93;;;;;;;;;;4978369;28;20417;-44
2022/11/26 01:30:42;;;;;;;29.07;13.37;;;;;;;;;;4989814;28;20428;-44
2022/11/26 01:33:08;;;;;;;29.67;14.63;;;;;;;;;;4984443;28;20422;-44
2022/11/26 01:35:34;;;;;;;31.70;13.60;;;;;;;;;;4983248;28;20447;-44
2022/11/26 01:38:00;;;;;;;29.40;13.60;;;;;;;;;;4983377;28;20479;-44
2022/11/26 01:40:30;;;;;;;25.87;13.67;;;;;;;;;;4979224;28;20784;-45
2022/11/26 01:43:03;;;;;;;30.90;13.90;;;;;;;;;;4975280;28;20469;-44
2022/11/26 01:45:29;;;;;;;34.60;13.27;;;;;;;;;;4982582;28;20442;-44
2022/11/26 01:47:55;;;;;;;36.10;12.40;;;;;;;;;;4987098;28;20420;-44
2022/11/26 01:50:28;;;;;;;27.10;13.50;;;;;;;;;;4985696;28;20926;-44
2022/11/26 01:52:55;;;;;;;33.57;14.97;;;;;;;;;;4973102;28;20414;-44
2022/11/26 01:55:22;;;;;;;34.90;13.83;;;;;;;;;;4982843;28;20500;-45
2022/11/26 01:57:49;;;;;;;34.53;12.57;;;;;;;;;;4985269;28;20416;-44
2022/11/26 02:00:15;;;;;;;29.93;12.80;;;;;;;;;;4984180;28;20497;-44
2022/11/26 02:02:41;;;;;;;32.63;13.50;;;;;;;;;;4983471;28;20539;-44
2022/11/26 02:05:14;;;;;;;30.70;13.63;;;;;;;;;;4982593;28;20413;-44
2022/11/26 02:07:40;;;;;;;26.13;14.30;;;;;;;;;;4983710;28;20794;-44
2022/11/26 02:10:08;;;;;;;25.33;14.60;;;;;;;;;;4980046;28;20424;-44
2022/11/26 02:12:34;;;;;;;30.30;13.13;;;;;;;;;;4981013;28;20404;-44
2022/11/26 02:15:05;;;;;;;27.40;13.70;;;;;;;;;;4988919;28;20409;-45
2022/11/26 02:17:35;;;;;;;33.30;14.10;;;;;;;;;;4981192;28;20574;-44
2022/11/26 02:20:01;;;;;;;28.07;14.87;;;;;;;;;;4986564;28;20407;-44
2022/11/26 02:22:42;;;;;;;29.73;14.47;;;;;;;;;;4981845;28;20610;-45
2022/11/26 02:25:31;;;;;;;33.20;13.77;;;;;;;;;;4976914;28;20511;-44
2022/11/26 02:28:15;;;;;;;39.80;14.00;;;;;;;;;;4969703;28;20426;-44
2022/11/26 02:30:45;;;;;;;37.97;16.07;;;;;;;;;;4983100;28;20406;-44
2022/11/26 02:33:37;;;;;;;43.37;16.47;;;;;;;;;;4982717;28;20421;-45
2022/11/26 02:36:14;;;;;;;39.60;16.83;;;;;;;;;;4964457;28;20820;-44
2022/11/26 02:38:41;;;;;;;30.87;16.13;;;;;;;;;;4982231;28;20423;-44
2022/11/26 02:41:07;;;;;;;40.57;15.03;;;;;;;;;;4981383;28;20415;-45
2022/11/26 02:43:36;;;;;;;32.40;15.63;;;;;;;;;;4986933;28;20547;-44
2022/11/26 02:46:06;;;;;;;26.83;14.80;;;;;;;;;;4982373;28;20444;-44
2022/11/26 02:48:34;;;;;;;39.33;17.53;;;;;;;;;;4978415;28;20425;-44
2022/11/26 02:51:07;;;;;;;34.13;17.60;;;;;;;;;;4981037;28;20421;-44
2022/11/26 02:53:36;;;;;;;38.80;16.53;;;;;;;;;;4981665;28;20412;-44
2022/11/26 02:56:05;;;;;;;31.60;16.40;;;;;;;;;;4981049;28;20422;-44
2022/11/26 02:58:33;;;;;;;36.83;17.23;;;;;;;;;;4981874;28;20786;-45
2022/11/26 03:01:01;;;;;;;43.43;16.67;;;;;;;;;;4977910;28;20424;-44
2022/11/26 03:03:31;;;;;;;37.95;15.45;;;;;;;;;;4983566;28;20466;-44
2022/11/26 03:06:02;;;;;;;44.33;17.60;;;;;;;;;;4977916;28;20232;-44
2022/11/26 03:08:28;;;;;;;31.13;14.33;;;;;;;;;;4983553;28;20428;-44
2022/11/26 03:10:54;;;;;;;36.73;16.73;;;;;;;;;;4982859;28;20527;-45
2022/11/26 03:13:21;;;;;;;35.50;16.03;;;;;;;;;;4981019;28;20989;-44
2022/11/26 03:15:47;;;;;;;29.88;14.95;;;;;;;;;;4981586;28;20437;-44
2022/11/26 03:18:13;;;;;;;38.47;14.63;;;;;;;;;;4980788;28;20224;-44
2022/11/26 03:20:39;;;;;;;36.27;15.60;;;;;;;;;;4981705;28;20939;-44
2022/11/26 03:23:05;;;;;;;33.50;15.87;;;;;;;;;;4980740;28;20825;-44
2022/11/26 03:25:31;;;;;;;45.30;15.77;;;;;;;;;;4983662;28;20448;-44
2022/11/26 03:27:58;;;;;;;40.43;14.53;;;;;;;;;;4983965;28;20406;-44
2022/11/26 03:30:25;;;;;;;40.80;15.93;;;;;;;;;;4978587;28;20424;-44
2022/11/26 03:32:51;;;;;;;37.83;16.80;;;;;;;;;;4981554;28;20409;-44
2022/11/26 03:35:17;;;;;;;36.17;15.30;;;;;;;;;;4982411;28;20421;-45
2022/11/26 03:37:47;;;;;;;35.05;14.82;;;;;;;;;;4983656;28;20512;-44
2022/11/26 03:40:15;;;;;;;33.20;16.07;;;;;;;;;;4986335;28;20259;-47
2022/11/26 03:42:41;;;;;;;33.97;15.03;;;;;;;;;;4982677;28;20824;-46
2022/11/26 03:45:07;;;;;;;32.00;14.77;;;;;;;;;;4981661;28;20779;-47
2022/11/26 03:47:34;;;;;;;39.80;15.57;;;;;;;;;;4977415;28;20937;-46
2022/11/26 03:50:00;;;;;;;31.80;14.70;;;;;;;;;;4983455;28;20190;-46
2022/11/26 03:52:26;;;;;;;35.78;14.73;;;;;;;;;;4982727;28;20923;-46
2022/11/26 03:54:52;;;;;;;40.43;15.73;;;;;;;;;;4984224;28;20173;-45
2022/11/26 03:57:19;;;;;;;27.80;14.30;;;;;;;;;;4981886;28;20437;-47
2022/11/26 03:59:44;;;;;;;31.33;13.40;;;;;;;;;;4982667;28;20421;-46
2022/11/26 04:02:10;;;;;;;33.20;15.40;;;;;;;;;;4984497;28;20840;-45
2022/11/26 04:04:36;;;;;;;35.10;15.20;;;;;;;;;;4980421;28;20440;-45
2022/11/26 04:07:02;;;;;;;39.57;14.77;;;;;;;;;;4983877;28;20482;-46
2022/11/26 04:09:28;;;;;;;39.00;15.70;;;;;;;;;;4981036;28;20425;-45
2022/11/26 04:11:54;;;;;;;32.73;15.03;;;;;;;;;;4983573;28;20415;-47
2022/11/26 04:14:20;;;;;;;31.17;14.93;;;;;;;;;;4977502;28;20463;-46
2022/11/26 04:16:46;;;;;;;34.47;14.30;;;;;;;;;;4982674;28;20434;-47
2022/11/26 04:19:12;;;;;;;29.33;14.27;;;;;;;;;;4980772;28;20421;-46
2022/11/26 04:21:38;;;;;;;32.67;15.80;;;;;;;;;;4986825;28;20185;-47
2022/11/26 04:24:04;;;;;;;38.27;16.93;;;;;;;;;;4983093;28;20892;-45
2022/11/26 04:26:30;;;;;;;36.30;17.90;;;;;;;;;;4981482;28;20524;-46
2022/11/26 04:28:56;;;;;;;38.57;18.93;;;;;;;;;;4984768;28;20249;-46
2022/11/26 04:31:22;;;;;;;39.27;16.03;;;;;;;;;;4984130;28;20413;-46
2022/11/26 04:33:48;;;;;;;47.33;19.00;;;;;;;;;;4987152;28;20903;-45
2022/11/26 04:36:14;;;;;;;40.90;17.30;;;;;;;;;;4987421;28;20448;-45
2022/11/26 04:38:40;;;;;;;31.47;16.00;;;;;;;;;;4988652;28;20466;-46
2022/11/26 04:41:06;;;;;;;40.20;16.60;;;;;;;;;;4984795;28;20412;-47
2022/11/26 04:43:32;;;;;;;44.47;17.80;;;;;;;;;;4981000;28;20910;-47
2022/11/26 04:45:58;;;;;;;35.03;16.58;;;;;;;;;;4993802;28;20440;-45
2022/11/26 04:48:24;;;;;;;52.13;20.20;;;;;;;;;;4985921;28;20173;-44
2022/11/26 04:50:50;;;;;;;39.90;19.30;;;;;;;;;;4990620;28;20404;-46
2022/11/26 04:53:20;;;;;;;42.87;18.03;;;;;;;;;;4983882;28;20464;-47
2022/11/26 04:55:47;;;;;;;44.95;18.02;;;;;;;;;;4987027;28;20783;-45
2022/11/26 04:58:13;;;;;;;40.83;17.40;;;;;;;;;;4983881;28;20185;-46
2022/11/26 05:00:38;;;;;;;36.10;17.17;;;;;;;;;;4984660;28;20196;-45
2022/11/26 05:03:04;;;;;;;43.60;16.60;;;;;;;;;;4987807;28;20467;-46
2022/11/26 05:05:30;;;;;;;42.93;16.43;;;;;;;;;;4983700;28;20579;-45
2022/11/26 05:07:56;;;;;;;50.97;18.67;;;;;;;;;;4985660;28;20423;-44
2022/11/26 05:10:22;;;;;;;36.13;17.93;;;;;;;;;;4983608;28;20417;-46
2022/11/26 05:12:48;;;;;;;40.13;16.33;;;;;;;;;;4984758;28;20410;-46
2022/11/26 05:15:14;;;;;;;35.87;18.20;;;;;;;;;;4988160;28;20795;-47
2022/11/26 05:17:40;;;;;;;34.75;17.13;;;;;;;;;;4989974;28;20551;-46
2022/11/26 05:20:06;;;;;;;40.03;16.97;;;;;;;;;;4981276;28;20212;-46
2022/11/26 05:22:32;;;;;;;37.85;18.50;;;;;;;;;;4984794;28;20488;-47
2022/11/26 05:24:58;;;;;;;45.40;18.27;;;;;;;;;;4983004;28;20260;-48
2022/11/26 05:27:24;;;;;;;40.03;18.63;;;;;;;;;;4983664;28;20909;-44
2022/11/26 05:29:50;;;;;;;41.10;17.13;;;;;;;;;;4983150;28;20986;-46
2022/11/26 05:32:16;;;;;;;54.53;21.37;;;;;;;;;;4983166;28;20414;-45
2022/11/26 05:34:42;;;;;;;38.80;18.23;;;;;;;;;;4988109;28;20411;-45
2022/11/26 05:37:08;;;;;;;48.50;18.50;;;;;;;;;;4984730;28;20448;-46
2022/11/26 05:39:34;;;;;;;42.00;17.37;;;;;;;;;;4979921;28;20968;-46
2022/11/26 05:42:00;;;;;;;40.40;17.63;;;;;;;;;;4983304;28;20802;-46
2022/11/26 05:44:26;;;;;;;44.77;17.60;;;;;;;;;;4983168;28;20409;-46
2022/11/26 05:46:52;;;;;;;48.43;19.80;;;;;;;;;;4983995;28;20440;-47
2022/11/26 05:49:18;;;;;;;45.97;17.60;;;;;;;;;;4983224;28;20959;-46
2022/11/26 05:51:44;;;;;;;39.67;17.43;;;;;;;;;;4984661;28;20786;-46
2022/11/26 05:54:12;;;;;;;42.50;20.00;;;;;;;;;;4982695;28;20763;-45
2022/11/26 05:56:38;;;;;;;49.83;19.30;;;;;;;;;;4978212;28;20796;-45
2022/11/26 05:59:04;;;;;;;57.83;21.33;;;;;;;;;;4986040;28;20438;-45
2022/11/26 06:01:30;;;;;;;55.70;20.90;;;;;;;;;;4982669;28;20423;-45
2022/11/26 06:03:56;;;;;;;53.28;21.33;;;;;;;;;;4985273;28;20492;-46
2022/11/26 06:06:22;;;;;;;45.10;20.10;;;;;;;;;;4985209;28;20696;-47
2022/11/26 06:08:48;;;;;;;54.03;21.67;;;;;;;;;;4982304;28;20515;-45
2022/11/26 06:11:14;;;;;;;46.63;21.50;;;;;;;;;;4981167;28;20467;-46
2022/11/26 06:13:40;;;;;;;66.37;22.13;;;;;;;;;;4983266;28;20494;-46
2022/11/26 06:16:06;;;;;;;58.33;21.03;;;;;;;;;;4983310;28;20463;-46
2022/11/26 06:18:32;;;;;;;52.83;21.17;;;;;;;;;;4979233;28;20452;-45
2022/11/26 06:21:02;;;;;;;68.73;23.33;;;;;;;;;;4973539;28;20275;-46
2022/11/26 06:23:28;;;;;;;48.67;21.20;;;;;;;;;;4982525;28;20552;-45
2022/11/26 06:25:54;;;;;;;63.07;21.57;;;;;;;;;;4981293;28;20524;-45
2022/11/26 06:28:20;;;;;;;53.55;22.92;;;;;;;;;;4981793;28;20415;-45
2022/11/26 06:30:46;;;;;;;52.60;23.00;;;;;;;;;;4990328;28;20174;-46
2022/11/26 06:33:12;;;;;;;49.30;21.50;;;;;;;;;;4984800;28;20467;-45
2022/11/26 06:35:38;;;;;;;60.47;23.20;;;;;;;;;;4979171;28;20437;-46
2022/11/26 06:38:04;;;;;;;49.20;20.63;;;;;;;;;;4985734;28;20504;-46
2022/11/26 06:40:30;;;;;;;56.93;23.47;;;;;;;;;;4982845;28;20213;-47
2022/11/26 06:42:56;;;;;;;61.93;23.53;;;;;;;;;;4985338;28;20447;-47
2022/11/26 06:45:23;;;;;;;54.67;20.73;;;;;;;;;;4982590;28;20433;-46
2022/11/26 06:47:49;;;;;;;53.10;22.25;;;;;;;;;;4985681;28;20925;-47
2022/11/26 06:50:16;;;;;;;58.28;22.02;;;;;;;;;;4982676;28;20264;-47
2022/11/26 06:52:42;;;;;;;47.50;20.90;;;;;;;;;;4978260;28;20332;-45
2022/11/26 06:55:08;;;;;;;54.83;20.70;;;;;;;;;;4984877;28;20242;-46
2022/11/26 06:57:34;;;;;;;55.33;19.65;;;;;;;;;;4982905;28;20417;-46
2022/11/26 07:00:00;;;;;;;58.40;19.33;;;;;;;;;;4982124;28;20683;-45
2022/11/26 07:02:26;;;;;;;49.80;19.37;;;;;;;;;;4981430;28;20549;-45
2022/11/26 07:04:52;;;;;;;57.17;19.90;;;;;;;;;;4983348;28;20621;-46
2022/11/26 07:07:18;;;;;;;52.37;18.40;;;;;;;;;;4981113;28;20428;-45
2022/11/26 07:09:44;;;;;;;45.08;19.05;;;;;;;;;;4981803;28;20921;-45
2022/11/26 07:12:10;;;;;;;56.97;18.80;;;;;;;;;;4985319;28;20247;-46
2022/11/26 07:14:36;;;;;;;53.35;20.92;;;;;;;;;;4980022;28;20430;-47
2022/11/26 07:17:02;;;;;;;47.27;18.83;;;;;;;;;;4978930;28;20210;-46
2022/11/26 07:19:28;;;;;;;54.37;19.50;;;;;;;;;;4984291;28;20415;-46
2022/11/26 07:21:54;;;;;;;44.20;18.80;;;;;;;;;;4981360;28;20452;-45
2022/11/26 07:24:20;;;;;;;47.57;17.40;;;;;;;;;;4980860;28;20549;-45
2022/11/26 07:26:46;;;;;;;47.87;19.07;;;;;;;;;;4986788;28;20429;-47
2022/11/26 07:29:12;;;;;;;41.93;16.70;;;;;;;;;;4983720;28;20409;-45
2022/11/26 07:31:38;;;;;;;46.27;17.53;;;;;;;;;;4978435;28;20473;-45
2022/11/26 07:34:04;;;;;;;45.38;17.60;;;;;;;;;;4979681;28;20416;-48
2022/11/26 07:36:30;;;;;;;40.00;17.20;;;;;;;;;;4980875;28;20198;-46
2022/11/26 07:38:57;;;;;;;46.00;17.50;;;;;;;;;;4984011;28;20401;-45
2022/11/26 07:41:23;;;;;;;50.05;19.50;;;;;;;;;;4982233;28;20417;-47
2022/11/26 07:43:49;;;;;;;53.40;18.70;;;;;;;;;;4984666;28;20264;-46
2022/11/26 07:46:17;;;;;;;34.97;15.70;;;;;;;;;;4981932;28;20447;-45
2022/11/26 07:48:43;;;;;;;37.30;16.90;;;;;;;;;;4982065;28;20444;-46
2022/11/26 07:51:16;;;;;;;51.40;16.73;;;;;;;;;;4984186;28;20774;-46
2022/11/26 07:53:42;;;;;;;51.78;18.98;;;;;;;;;;4982823;28;20936;-46
2022/11/26 07:56:08;;;;;;;48.67;18.10;;;;;;;;;;4981358;28;20196;-45
2022/11/26 07:58:34;;;;;;;34.07;17.30;;;;;;;;;;4981059;28;20977;-46
2022/11/26 08:01:07;;;;;;;48.60;18.90;;;;;;;;;;4981586;28;20456;-46
2022/11/26 08:03:36;;;;;;;45.70;17.13;;;;;;;;;;4985408;28;20460;-47
2022/11/26 08:06:04;;;;;;;46.07;18.10;;;;;;;;;;4982990;28;20437;-47
2022/11/26 08:08:30;;;;;;;36.13;16.63;;;;;;;;;;4983990;28;20904;-46
2022/11/26 08:10:56;;;;;;;40.80;16.30;;;;;;;;;;4980861;28;20421;-46
2022/11/26 08:13:22;;;;;;;45.10;15.80;;;;;;;;;;4978871;28;20448;-46
2022/11/26 08:15:48;;;;;;;42.67;18.03;;;;;;;;;;4984936;28;20432;-45
2022/11/26 08:18:14;;;;;;;46.93;17.20;;;;;;;;;;4975231;28;20440;-46
2022/11/26 08:20:40;;;;;;;43.43;16.43;;;;;;;;;;4987062;28;20420;-46
2022/11/26 08:23:06;;;;;;;33.70;16.03;;;;;;;;;;4982337;28;20460;-44
2022/11/26 08:25:32;;;;;;;41.33;15.80;;;;;;;;;;4986087;28;20468;-46
2022/11/26 08:27:58;;;;;;;36.87;15.33;;;;;;;;;;4981528;28;20408;-46
2022/11/26 08:30:24;;;;;;;40.33;15.70;;;;;;;;;;4987781;28;20411;-47
2022/11/26 08:32:50;;;;;;;32.60;15.30;;;;;;;;;;4987208;28;20422;-47
2022/11/26 08:35:16;;;;;;;35.73;14.60;;;;;;;;;;4986024;28;20455;-47
2022/11/26 08:37:42;;;;;;;39.17;13.47;;;;;;;;;;4984955;28;20857;-47
2022/11/26 08:40:08;;;;;;;28.10;13.33;;;;;;;;;;4985241;28;20496;-47
2022/11/26 08:42:34;;;;;;;34.57;14.20;;;;;;;;;;4981524;28;20972;-46
2022/11/26 08:45:00;;;;;;;29.20;14.63;;;;;;;;;;4987096;28;20425;-46
2022/11/26 08:47:26;;;;;;;24.23;12.70;;;;;;;;;;4981111;28;20841;-45
2022/11/26 08:49:52;;;;;;;24.13;12.30;;;;;;;;;;4985495;28;20421;-47
2022/11/26 08:52:18;;;;;;;27.17;12.60;;;;;;;;;;4981501;28;20863;-47
2022/11/26 08:54:43;;;;;;;22.30;12.30;;;;;;;;;;4985775;28;20480;-45
2022/11/26 08:57:09;;;;;;;24.43;14.70;;;;;;;;;;4982711;28;20442;-46
2022/11/26 08:59:35;;;;;;;26.20;12.20;;;;;;;;;;4984527;28;20421;-46
2022/11/26 09:02:01;;;;;;;23.73;12.33;;;;;;;;;;4984441;28;21001;-46
2022/11/26 09:04:27;;;;;;;21.30;10.77;;;;;;;;;;4989547;28;20825;-46
2022/11/26 09:06:53;;;;;;;22.47;11.10;;;;;;;;;;4983269;28;20434;-46
2022/11/26 09:09:19;;;;;;;31.07;10.87;;;;;;;;;;4983312;28;20460;-45
2022/11/26 09:11:50;;;;;;;21.87;11.10;;;;;;;;;;4985073;28;20419;-47
2022/11/26 09:14:17;;;;;;;21.10;8.93;;;;;;;;;;4983516;28;20424;-45
2022/11/26 09:16:43;;;;;;;21.17;9.80;;;;;;;;;;4986454;28;20802;-46
2022/11/26 09:19:10;;;;;;;15.10;8.30;;;;;;;;;;4984910;28;20500;-47
2022/11/26 09:21:36;;;;;;;16.80;10.40;;;;;;;;;;4991010;28;20459;-45
2022/11/26 09:24:02;;;;;;;20.67;8.63;;;;;;;;;;4987556;28;20460;-47
2022/11/26 09:26:29;;;;;;;13.53;7.87;;;;;;;;;;4982208;28;20525;-47
2022/11/26 09:28:56;;;;;;;25.90;9.30;;;;;;;;;;4993189;28;20451;-45
2022/11/26 09:31:22;;;;;;;11.97;6.43;;;;;;;;;;4987570;28;20424;-45
2022/11/26 09:33:48;;;;;;;17.10;7.47;;;;;;;;;;4989926;28;20402;-46
2022/11/26 09:36:15;;;;;;;11.37;6.60;;;;;;;;;;4990884;28;20418;-47
2022/11/26 09:38:44;;;;;;;14.27;7.00;;;;;;;;;;4988955;28;20824;-47
2022/11/26 09:41:13;;;;;;;12.40;6.73;;;;;;;;;;4987178;28;20406;-48
2022/11/26 09:43:55;;;;;;;12.43;6.73;;;;;;;;;;4988892;28;20473;-47
2022/11/26 09:46:24;;;;;;;19.50;7.13;;;;;;;;;;4993517;28;20463;-47
2022/11/26 09:48:50;;;;;;;13.60;6.53;;;;;;;;;;4987803;28;20388;-48
2022/11/26 09:51:19;;;;;;;10.20;5.87;;;;;;;;;;4987462;28;20411;-47
2022/11/26 09:53:46;;;;;;;12.17;7.00;;;;;;;;;;4993256;28;20422;-46
2022/11/26 09:56:14;;;;;;;14.67;6.00;;;;;;;;;;4987484;28;20432;-47
2022/11/26 09:58:47;;;;;;;18.53;6.70;;;;;;;;;;4992769;28;20489;-48
2022/11/26 10:01:17;;;;;;;11.63;6.07;;;;;;;;;;4986428;28;20427;-48
2022/11/26 10:03:43;;;;;;;12.40;5.40;;;;;;;;;;4991151;28;20436;-46
2022/11/26 10:06:30;;;;;;;19.43;5.60;;;;;;;;;;4987571;28;20461;-48
2022/11/26 10:08:59;;;;;;;15.47;6.57;;;;;;;;;;4977574;28;20918;-46
2022/11/26 10:11:31;;;;;;;14.50;6.00;;;;;;;;;;4982468;28;20453;-47
2022/11/26 10:14:07;;;;;;;14.03;6.23;;;;;;;;;;4994858;28;20387;-47
2022/11/26 10:16:33;;;;;;;11.17;4.77;;;;;;;;;;4985399;28;20443;-47
2022/11/26 10:19:07;;;;;;;7.80;5.40;;;;;;;;;;4991324;28;20395;-46
2022/11/26 10:21:37;;;;;;;9.10;4.87;;;;;;;;;;4987211;28;20778;-46
2022/11/26 10:24:06;;;;;;;11.37;4.80;;;;;;;;;;4980548;28;20445;-46
2022/11/26 10:26:38;;;;;;;8.93;4.90;;;;;;;;;;4987353;28;20413;-47
2022/11/26 10:29:18;;;;;;;8.20;4.70;;;;;;;;;;4990198;28;20466;-47
2022/11/26 10:31:45;;;;;;;11.17;4.97;;;;;;;;;;4989807;28;20398;-46
2022/11/26 10:34:14;;;;;;;11.50;5.30;;;;;;;;;;4986983;28;20392;-47
2022/11/26 10:36:41;;;;;;;13.87;5.20;;;;;;;;;;4982745;28;20414;-46
2022/11/26 10:39:07;;;;;;;11.80;4.53;;;;;;;;;;4982081;28;20872;-46
2022/11/26 10:41:34;;;;;;;10.73;4.43;;;;;;;;;;4984633;28;20752;-48
2022/11/26 10:44:19;;;;;;;9.23;4.70;;;;;;;;;;4987132;28;20812;-45
2022/11/26 10:46:45;;;;;;;11.33;4.07;;;;;;;;;;4986034;28;20878;-46
2022/11/26 10:49:15;;;;;;;11.77;4.47;;;;;;;;;;4983329;28;20418;-46
2022/11/26 10:51:41;;;;;;;14.90;5.30;;;;;;;;;;4984961;28;20412;-47
2022/11/26 10:54:20;;;;;;;7.40;3.73;;;;;;;;;;4981062;28;21034;-46
2022/11/26 10:56:47;;;;;;;9.83;5.70;;;;;;;;;;4983067;28;20432;-46
2022/11/26 10:59:23;;;;;;;8.33;3.67;;;;;;;;;;4982003;28;20729;-48
2022/11/26 11:01:49;;;;;;;6.90;3.50;;;;;;;;;;4980627;28;20902;-48
2022/11/26 11:04:29;;;;;;;11.17;3.23;;;;;;;;;;4980858;28;20431;-47
2022/11/26 11:06:55;;;;;;;11.60;4.67;;;;;;;;;;4975137;28;20460;-48
2022/11/26 11:09:29;;;;;;;11.57;3.70;;;;;;;;;;4982321;28;20420;-46
2022/11/26 11:12:14;;;;;;;14.17;3.90;;;;;;;;;;4973763;28;20413;-47
2022/11/26 11:14:42;;;;;;;7.80;2.93;;;;;;;;;;4985447;28;20474;-46
2022/11/26 11:17:19;;;;;;;11.10;3.60;;;;;;;;;;4985407;28;20436;-47
2022/11/26 11:19:45;;;;;;;5.67;3.30;;;;;;;;;;4987454;28;20400;-46
2022/11/26 11:22:18;;;;;;;9.30;3.20;;;;;;;;;;4984160;28;20448;-48
2022/11/26 11:24:45;;;;;;;6.90;2.87;;;;;;;;;;4985409;28;20982;-46
2022/11/26 11:27:22;;;;;;;12.17;3.57;;;;;;;;;;4987326;28;20433;-46
2022/11/26 11:29:49;;;;;;;13.77;3.60;;;;;;;;;;4984059;28;20439;-46
2022/11/26 11:32:32;;;;;;;15.27;3.50;;;;;;;;;;4983702;28;20478;-48
2022/11/26 11:35:11;;;;;;;10.70;2.73;;;;;;;;;;4982583;28;20452;-48
2022/11/26 11:37:46;;;;;;;9.77;3.30;;;;;;;;;;4989859;28;20404;-47
2022/11/26 11:40:22;;;;;;;5.20;3.20;;;;;;;;;;4988189;28;20409;-46
2022/11/26 11:42:54;;;;;;;7.67;3.43;;;;;;;;;;4991516;28;20459;-47
2022/11/26 11:45:33;;;;;;;8.83;3.60;;;;;;;;;;4983117;28;20450;-47
2022/11/26 11:48:04;;;;;;;9.80;3.20;;;;;;;;;;4986041;28;20710;-46
2022/11/26 11:50:32;;;;;;;9.43;3.27;;;;;;;;;;4987278;28;20378;-46
2022/11/26 11:53:15;;;;;;;12.13;3.70;;;;;;;;;;4986900;28;20467;-47
2022/11/26 11:55:47;;;;;;;9.07;4.13;;;;;;;;;;4989970;28;21132;-47
2022/11/26 11:58:19;;;;;;;7.20;3.30;;;;;;;;;;4987920;28;20394;-48
2022/11/26 12:00:52;;;;;;;6.87;2.93;;;;;;;;;;4982900;28;20404;-46
2022/11/26 12:03:28;;;;;;;14.20;3.30;;;;;;;;;;4981711;28;20952;-45
2022/11/26 12:05:56;;;;;;;12.03;3.70;;;;;;;;;;4980481;28;20600;-46
2022/11/26 12:08:34;;;;;;;12.13;3.40;;;;;;;;;;4985879;28;20415;-46
2022/11/26 12:11:03;;;;;;;17.07;4.07;;;;;;;;;;4971384;28;20423;-46
2022/11/26 12:13:31;;;;;;;19.67;3.30;;;;;;;;;;4985723;28;20511;-46
2022/11/26 12:16:04;;;;;;;6.60;2.93;;;;;;;;;;4985482;28;20436;-46
2022/11/26 12:18:35;;;;;;;12.33;3.80;;;;;;;;;;4985146;28;20519;-48
2022/11/26 12:21:05;;;;;;;13.83;3.30;;;;;;;;;;4985067;28;20827;-48
2022/11/26 12:23:35;;;;;;;15.90;4.07;;;;;;;;;;4990941;28;20459;-46
2022/11/26 12:26:05;;;;;;;13.47;3.70;;;;;;;;;;4985021;28;20614;-46
2022/11/26 12:28:33;;;;;;;13.30;3.90;;;;;;;;;;4981506;28;20383;-47
2022/11/26 12:31:08;;;;;;;14.70;4.50;;;;;;;;;;4983525;28;20978;-47
2022/11/26 15:12:09;;;;;;;7.30;4.13;;;;;;;;;;5088649;27;20566;-41
2022/11/26 15:14:53;;;;;;;14.50;4.00;;;;;;;;;;5089161;28;20412;-42
2022/11/26 15:17:20;;;;;;;9.63;4.30;;;;;;;;;;5088846;28;20399;-42
2022/11/26 15:19:46;;;;;;;8.40;3.93;;;;;;;;;;5089247;28;20948;-42
2022/11/26 15:22:24;;;;;;;9.83;4.30;;;;;;;;;;5088520;28;20764;-42
2022/11/26 15:24:51;;;;;;;11.93;4.03;;;;;;;;;;5089173;28;20445;-42
2022/11/26 15:27:35;;;;;;;15.53;3.13;;;;;;;;;;5088830;28;20400;-42
2022/11/26 15:30:02;;;;;;;12.00;3.87;;;;;;;;;;5088054;28;20491;-42
2022/11/26 15:32:29;;;;;;;6.20;3.80;;;;;;;;;;5088251;28;20932;-44
2022/11/26 15:34:58;;;;;;;13.73;4.30;;;;;;;;;;5088781;28;20487;-43
2022/11/26 15:37:24;;;;;;;6.50;3.30;;;;;;;;;;5088744;28;20401;-42
2022/11/26 15:40:10;;;;;;;6.90;3.70;;;;;;;;;;5088569;28;20545;-43
2022/11/26 15:42:38;;;;;;;10.00;4.20;;;;;;;;;;5088113;28;20425;-42
2022/11/26 15:45:04;;;;;;;7.87;4.20;;;;;;;;;;5088773;28;20861;-42
2022/11/26 15:47:30;;;;;;;4.60;3.70;;;;;;;;;;5088589;28;20442;-42
2022/11/26 15:49:58;;;;;;;8.20;4.03;;;;;;;;;;5088496;28;20428;-42
2022/11/26 15:52:29;;;;;;;9.70;5.30;;;;;;;;;;5088036;28;20431;-42
2022/11/26 15:55:00;;;;;;;7.03;4.17;;;;;;;;;;5088268;28;20422;-43
2022/11/26 15:57:34;;;;;;;4.63;3.20;;;;;;;;;;5088161;28;20402;-42
2022/11/26 16:00:05;;;;;;;6.83;4.47;;;;;;;;;;5087148;28;20450;-42
2022/11/26 16:02:31;;;;;;;6.13;3.20;;;;;;;;;;5086216;28;20456;-42
2022/11/26 16:04:58;;;;;;;9.37;4.20;;;;;;;;;;5087859;28;20410;-43
2022/11/26 16:07:26;;;;;;;15.27;5.63;;;;;;;;;;5087707;28;20494;-43
2022/11/26 16:10:08;;;;;;;8.53;4.13;;;;;;;;;;5087751;28;20408;-43
2022/11/26 16:12:35;;;;;;;7.13;4.17;;;;;;;;;;5077171;28;20613;-42
2022/11/26 16:15:16;;;;;;;7.00;3.83;;;;;;;;;;5074350;28;20402;-42
2022/11/26 16:17:43;;;;;;;6.30;3.77;;;;;;;;;;5074046;28;20407;-44
2022/11/26 16:20:23;;;;;;;12.20;3.93;;;;;;;;;;5073863;28;20460;-43
2022/11/26 16:22:50;;;;;;;6.23;4.30;;;;;;;;;;5073882;28;20913;-43
2022/11/26 16:25:27;;;;;;;10.60;4.53;;;;;;;;;;5074037;28;20892;-42
2022/11/26 16:28:11;;;;;;;6.70;4.13;;;;;;;;;;5074085;28;20776;-42
2022/11/26 16:30:37;;;;;;;10.60;4.30;;;;;;;;;;5073982;28;20414;-41
2022/11/26 16:33:04;;;;;;;9.40;4.60;;;;;;;;;;5073744;28;20428;-42
2022/11/26 16:35:30;;;;;;;8.33;4.27;;;;;;;;;;5073987;28;20407;-43
2022/11/26 16:37:56;;;;;;;7.80;4.90;;;;;;;;;;5073968;28;20442;-42
2022/11/26 16:40:22;;;;;;;7.80;5.30;;;;;;;;;;5073700;28;20938;-42
2022/11/26 16:42:49;;;;;;;8.80;4.67;;;;;;;;;;5073453;28;20427;-43
2022/11/26 16:45:15;;;;;;;8.13;4.80;;;;;;;;;;5073804;28;20414;-44
2022/11/26 16:47:43;;;;;;;7.70;4.40;;;;;;;;;;5073557;28;20420;-42
2022/11/26 16:50:16;;;;;;;5.93;5.07;;;;;;;;;;5073604;28;20753;-42
2022/11/26 16:52:42;;;;;;;15.53;5.50;;;;;;;;;;5073426;28;20923;-42
2022/11/26 16:55:12;;;;;;;7.13;4.50;;;;;;;;;;5073535;28;20413;-42
2022/11/26 16:57:38;;;;;;;10.23;4.50;;;;;;;;;;5073438;28;20499;-42
2022/11/26 17:00:04;;;;;;;11.73;5.60;;;;;;;;;;5073201;28;20879;-43
2022/11/26 17:02:32;;;;;;;10.23;5.60;;;;;;;;;;5073061;28;20939;-42
2022/11/26 17:04:58;;;;;;;9.20;4.60;;;;;;;;;;5069332;28;20418;-41
2022/11/26 17:07:24;;;;;;;10.40;5.03;;;;;;;;;;5088192;28;20429;-42
2022/11/26 17:09:50;;;;;;;11.73;5.57;;;;;;;;;;5093041;28;20745;-42